sensor_id;sensor_type;location;lat;lon;timestamp;P1;durP1;ratioP1;P2;durP2;ratioP2
24373;SDS011;12498;50.880;12.096;2023-05-16T00:00:43;18.48;;;9.30;;
24373;SDS011;12498;50.880;12.096;2023-05-16T00:03:10;12.27;;;8.52;;
24373;SDS011;12498;50.880;12.096;2023-05-16T00:05:36;11.77;;;8.60;;
24373;SDS011;12498;50.880;12.096;2023-05-16T00:08:03;11.13;;;8.70;;
24373;SDS011;12498;50.880;12.096;2023-05-16T00:10:29;11.55;;;8.70;;
24373;SDS011;12498;50.880;12.096;2023-05-16T00:12:55;12.98;;;8.95;;
24373;SDS011;12498;50.880;12.096;2023-05-16T00:15:21;11.90;;;7.82;;
24373;SDS011;12498;50.880;12.096;2023-05-16T00:17:48;12.95;;;8.60;;
24373;SDS011;12498;50.880;12.096;2023-05-16T00:20:16;11.63;;;8.48;;
24373;SDS011;12498;50.880;12.096;2023-05-16T00:22:43;12.75;;;8.93;;
24373;SDS011;12498;50.880;12.096;2023-05-16T00:25:10;10.90;;;9.05;;
24373;SDS011;12498;50.880;12.096;2023-05-16T00:27:36;11.57;;;8.40;;
24373;SDS011;12498;50.880;12.096;2023-05-16T00:30:02;12.75;;;8.38;;
24373;SDS011;12498;50.880;12.096;2023-05-16T00:32:28;10.98;;;9.13;;
24373;SDS011;12498;50.880;12.096;2023-05-16T00:34:54;10.55;;;8.75;;
24373;SDS011;12498;50.880;12.096;2023-05-16T00:37:20;11.15;;;8.73;;
24373;SDS011;12498;50.880;12.096;2023-05-16T00:39:46;10.30;;;8.48;;
24373;SDS011;12498;50.880;12.096;2023-05-16T00:42:12;11.20;;;9.05;;
24373;SDS011;12498;50.880;12.096;2023-05-16T00:44:39;11.13;;;9.07;;
24373;SDS011;12498;50.880;12.096;2023-05-16T00:47:05;11.13;;;8.77;;
24373;SDS011;12498;50.880;12.096;2023-05-16T00:49:32;11.63;;;9.05;;
24373;SDS011;12498;50.880;12.096;2023-05-16T00:51:58;14.82;;;9.05;;
24373;SDS011;12498;50.880;12.096;2023-05-16T00:54:25;12.48;;;9.45;;
24373;SDS011;12498;50.880;12.096;2023-05-16T00:56:53;14.40;;;9.57;;
24373;SDS011;12498;50.880;12.096;2023-05-16T00:59:19;12.27;;;9.25;;
24373;SDS011;12498;50.880;12.096;2023-05-16T01:01:45;11.48;;;8.88;;
24373;SDS011;12498;50.880;12.096;2023-05-16T01:04:12;12.30;;;8.88;;
24373;SDS011;12498;50.880;12.096;2023-05-16T01:06:38;12.50;;;9.20;;
24373;SDS011;12498;50.880;12.096;2023-05-16T01:09:05;13.15;;;9.13;;
24373;SDS011;12498;50.880;12.096;2023-05-16T01:11:37;11.73;;;8.80;;
24373;SDS011;12498;50.880;12.096;2023-05-16T01:22:01;11.45;;;9.23;;
24373;SDS011;12498;50.880;12.096;2023-05-16T01:24:33;11.20;;;9.40;;
24373;SDS011;12498;50.880;12.096;2023-05-16T01:26:59;16.20;;;10.07;;
24373;SDS011;12498;50.880;12.096;2023-05-16T01:29:28;13.18;;;10.45;;
24373;SDS011;12498;50.880;12.096;2023-05-16T01:31:54;12.93;;;10.00;;
24373;SDS011;12498;50.880;12.096;2023-05-16T01:34:20;14.55;;;10.27;;
24373;SDS011;12498;50.880;12.096;2023-05-16T01:39:40;11.85;;;9.60;;
24373;SDS011;12498;50.880;12.096;2023-05-16T01:42:08;10.73;;;9.60;;
24373;SDS011;12498;50.880;12.096;2023-05-16T01:44:36;10.85;;;9.73;;
24373;SDS011;12498;50.880;12.096;2023-05-16T01:47:10;11.82;;;9.95;;
24373;SDS011;12498;50.880;12.096;2023-05-16T01:52:18;10.80;;;9.32;;
24373;SDS011;12498;50.880;12.096;2023-05-16T01:54:46;12.07;;;9.75;;
24373;SDS011;12498;50.880;12.096;2023-05-16T01:57:12;13.43;;;10.32;;
24373;SDS011;12498;50.880;12.096;2023-05-16T01:59:39;11.48;;;9.73;;
24373;SDS011;12498;50.880;12.096;2023-05-16T02:02:06;13.38;;;9.98;;
24373;SDS011;12498;50.880;12.096;2023-05-16T02:04:32;13.60;;;10.32;;
24373;SDS011;12498;50.880;12.096;2023-05-16T02:06:58;16.33;;;10.65;;
24373;SDS011;12498;50.880;12.096;2023-05-16T02:09:25;12.05;;;9.90;;
24373;SDS011;12498;50.880;12.096;2023-05-16T02:11:51;12.02;;;10.48;;
24373;SDS011;12498;50.880;12.096;2023-05-16T02:14:18;13.50;;;10.52;;
24373;SDS011;12498;50.880;12.096;2023-05-16T02:16:44;12.13;;;10.13;;
24373;SDS011;12498;50.880;12.096;2023-05-16T02:19:10;15.52;;;10.25;;
24373;SDS011;12498;50.880;12.096;2023-05-16T02:21:36;13.90;;;10.70;;
24373;SDS011;12498;50.880;12.096;2023-05-16T02:24:02;14.10;;;10.88;;
24373;SDS011;12498;50.880;12.096;2023-05-16T02:26:28;14.95;;;11.18;;
24373;SDS011;12498;50.880;12.096;2023-05-16T02:28:55;15.63;;;11.02;;
24373;SDS011;12498;50.880;12.096;2023-05-16T02:31:24;14.98;;;10.43;;
24373;SDS011;12498;50.880;12.096;2023-05-16T02:33:50;13.70;;;10.52;;
24373;SDS011;12498;50.880;12.096;2023-05-16T02:36:16;15.32;;;10.93;;
24373;SDS011;12498;50.880;12.096;2023-05-16T02:38:42;15.00;;;11.57;;
24373;SDS011;12498;50.880;12.096;2023-05-16T02:41:08;15.55;;;11.10;;
24373;SDS011;12498;50.880;12.096;2023-05-16T02:43:34;13.10;;;10.60;;
24373;SDS011;12498;50.880;12.096;2023-05-16T02:46:01;12.75;;;10.82;;
24373;SDS011;12498;50.880;12.096;2023-05-16T02:48:28;11.97;;;10.67;;
24373;SDS011;12498;50.880;12.096;2023-05-16T02:50:55;13.38;;;10.63;;
24373;SDS011;12498;50.880;12.096;2023-05-16T02:53:21;12.32;;;10.63;;
24373;SDS011;12498;50.880;12.096;2023-05-16T02:55:47;12.90;;;10.68;;
24373;SDS011;12498;50.880;12.096;2023-05-16T02:58:13;15.48;;;11.00;;
24373;SDS011;12498;50.880;12.096;2023-05-16T03:00:38;14.10;;;10.95;;
24373;SDS011;12498;50.880;12.096;2023-05-16T03:03:05;12.50;;;10.68;;
24373;SDS011;12498;50.880;12.096;2023-05-16T03:05:31;15.38;;;11.30;;
24373;SDS011;12498;50.880;12.096;2023-05-16T03:07:57;20.13;;;11.30;;
24373;SDS011;12498;50.880;12.096;2023-05-16T03:10:22;15.05;;;11.32;;
24373;SDS011;12498;50.880;12.096;2023-05-16T03:12:49;13.30;;;11.18;;
24373;SDS011;12498;50.880;12.096;2023-05-16T03:15:15;13.68;;;10.60;;
24373;SDS011;12498;50.880;12.096;2023-05-16T03:17:41;14.30;;;11.27;;
24373;SDS011;12498;50.880;12.096;2023-05-16T03:20:07;13.18;;;10.95;;
24373;SDS011;12498;50.880;12.096;2023-05-16T03:22:34;15.45;;;11.23;;
24373;SDS011;12498;50.880;12.096;2023-05-16T03:25:00;16.38;;;12.05;;
24373;SDS011;12498;50.880;12.096;2023-05-16T03:27:26;15.82;;;11.57;;
24373;SDS011;12498;50.880;12.096;2023-05-16T03:29:52;17.65;;;12.35;;
24373;SDS011;12498;50.880;12.096;2023-05-16T03:32:18;19.00;;;15.18;;
24373;SDS011;12498;50.880;12.096;2023-05-16T03:34:45;16.13;;;12.50;;
24373;SDS011;12498;50.880;12.096;2023-05-16T03:37:11;17.30;;;11.68;;
24373;SDS011;12498;50.880;12.096;2023-05-16T03:39:38;15.80;;;11.35;;
24373;SDS011;12498;50.880;12.096;2023-05-16T03:42:04;16.48;;;12.48;;
24373;SDS011;12498;50.880;12.096;2023-05-16T03:44:31;15.70;;;12.50;;
24373;SDS011;12498;50.880;12.096;2023-05-16T03:46:57;15.98;;;12.35;;
24373;SDS011;12498;50.880;12.096;2023-05-16T03:49:24;17.30;;;13.75;;
24373;SDS011;12498;50.880;12.096;2023-05-16T03:51:54;21.08;;;15.02;;
24373;SDS011;12498;50.880;12.096;2023-05-16T03:54:20;18.65;;;15.73;;
24373;SDS011;12498;50.880;12.096;2023-05-16T03:56:47;20.83;;;16.05;;
24373;SDS011;12498;50.880;12.096;2023-05-16T03:59:13;21.05;;;16.00;;
24373;SDS011;12498;50.880;12.096;2023-05-16T04:01:39;20.55;;;15.65;;
24373;SDS011;12498;50.880;12.096;2023-05-16T04:04:05;26.83;;;16.60;;
24373;SDS011;12498;50.880;12.096;2023-05-16T04:06:31;22.58;;;17.05;;
24373;SDS011;12498;50.880;12.096;2023-05-16T04:08:58;22.45;;;16.33;;
24373;SDS011;12498;50.880;12.096;2023-05-16T04:11:24;24.50;;;16.83;;
24373;SDS011;12498;50.880;12.096;2023-05-16T04:13:50;20.90;;;17.15;;
24373;SDS011;12498;50.880;12.096;2023-05-16T04:16:17;36.15;;;24.20;;
24373;SDS011;12498;50.880;12.096;2023-05-16T04:18:44;35.30;;;23.02;;
24373;SDS011;12498;50.880;12.096;2023-05-16T04:21:10;38.88;;;27.05;;
24373;SDS011;12498;50.880;12.096;2023-05-16T04:23:39;42.67;;;29.70;;
24373;SDS011;12498;50.880;12.096;2023-05-16T04:26:05;47.00;;;30.90;;
24373;SDS011;12498;50.880;12.096;2023-05-16T04:28:31;31.98;;;22.30;;
24373;SDS011;12498;50.880;12.096;2023-05-16T04:30:57;34.95;;;22.88;;
24373;SDS011;12498;50.880;12.096;2023-05-16T04:33:27;26.25;;;19.38;;
24373;SDS011;12498;50.880;12.096;2023-05-16T04:35:53;39.58;;;20.98;;
24373;SDS011;12498;50.880;12.096;2023-05-16T04:38:19;26.27;;;19.92;;
24373;SDS011;12498;50.880;12.096;2023-05-16T04:40:45;19.42;;;14.85;;
24373;SDS011;12498;50.880;12.096;2023-05-16T04:43:14;28.08;;;19.08;;
24373;SDS011;12498;50.880;12.096;2023-05-16T04:45:40;24.83;;;17.40;;
24373;SDS011;12498;50.880;12.096;2023-05-16T04:48:07;17.90;;;15.93;;
24373;SDS011;12498;50.880;12.096;2023-05-16T04:50:33;22.00;;;15.85;;
24373;SDS011;12498;50.880;12.096;2023-05-16T04:52:59;22.27;;;16.42;;
24373;SDS011;12498;50.880;12.096;2023-05-16T04:55:26;24.10;;;18.58;;
24373;SDS011;12498;50.880;12.096;2023-05-16T04:57:52;22.90;;;19.08;;
24373;SDS011;12498;50.880;12.096;2023-05-16T05:00:18;31.73;;;19.83;;
24373;SDS011;12498;50.880;12.096;2023-05-16T05:02:44;24.55;;;19.98;;
24373;SDS011;12498;50.880;12.096;2023-05-16T05:05:10;28.02;;;21.52;;
24373;SDS011;12498;50.880;12.096;2023-05-16T05:07:36;26.25;;;21.17;;
24373;SDS011;12498;50.880;12.096;2023-05-16T05:10:02;28.55;;;21.90;;
24373;SDS011;12498;50.880;12.096;2023-05-16T05:12:30;31.38;;;24.88;;
24373;SDS011;12498;50.880;12.096;2023-05-16T05:14:56;27.67;;;22.83;;
24373;SDS011;12498;50.880;12.096;2023-05-16T05:17:22;28.20;;;22.52;;
24373;SDS011;12498;50.880;12.096;2023-05-16T05:19:48;30.73;;;22.42;;
24373;SDS011;12498;50.880;12.096;2023-05-16T05:22:14;30.35;;;23.05;;
24373;SDS011;12498;50.880;12.096;2023-05-16T05:24:40;32.22;;;23.42;;
24373;SDS011;12498;50.880;12.096;2023-05-16T05:27:06;137.05;;;62.58;;
24373;SDS011;12498;50.880;12.096;2023-05-16T05:29:32;301.92;;;125.05;;
24373;SDS011;12498;50.880;12.096;2023-05-16T05:31:58;114.40;;;55.85;;
24373;SDS011;12498;50.880;12.096;2023-05-16T05:34:24;185.63;;;81.35;;
24373;SDS011;12498;50.880;12.096;2023-05-16T05:36:50;51.95;;;31.60;;
24373;SDS011;12498;50.880;12.096;2023-05-16T05:39:16;54.03;;;29.52;;
24373;SDS011;12498;50.880;12.096;2023-05-16T05:41:42;46.55;;;28.55;;
24373;SDS011;12498;50.880;12.096;2023-05-16T05:44:08;114.32;;;55.00;;
24373;SDS011;12498;50.880;12.096;2023-05-16T05:46:34;80.88;;;41.60;;
24373;SDS011;12498;50.880;12.096;2023-05-16T05:49:01;35.85;;;24.73;;
24373;SDS011;12498;50.880;12.096;2023-05-16T05:51:27;179.48;;;81.85;;
24373;SDS011;12498;50.880;12.096;2023-05-16T05:53:53;74.82;;;41.63;;
24373;SDS011;12498;50.880;12.096;2023-05-16T05:56:20;36.13;;;23.95;;
24373;SDS011;12498;50.880;12.096;2023-05-16T05:58:45;54.63;;;33.17;;
24373;SDS011;12498;50.880;12.096;2023-05-16T06:01:12;160.38;;;79.90;;
24373;SDS011;12498;50.880;12.096;2023-05-16T06:03:38;86.93;;;45.20;;
24373;SDS011;12498;50.880;12.096;2023-05-16T06:06:04;52.42;;;27.92;;
24373;SDS011;12498;50.880;12.096;2023-05-16T06:08:30;38.00;;;25.20;;
24373;SDS011;12498;50.880;12.096;2023-05-16T06:10:56;58.22;;;33.83;;
24373;SDS011;12498;50.880;12.096;2023-05-16T06:13:22;35.90;;;24.83;;
24373;SDS011;12498;50.880;12.096;2023-05-16T06:15:51;37.30;;;25.50;;
24373;SDS011;12498;50.880;12.096;2023-05-16T06:18:17;31.80;;;24.05;;
24373;SDS011;12498;50.880;12.096;2023-05-16T06:20:43;29.25;;;23.95;;
24373;SDS011;12498;50.880;12.096;2023-05-16T06:23:10;34.00;;;25.77;;
24373;SDS011;12498;50.880;12.096;2023-05-16T06:25:36;37.60;;;26.17;;
24373;SDS011;12498;50.880;12.096;2023-05-16T06:28:02;37.25;;;26.42;;
24373;SDS011;12498;50.880;12.096;2023-05-16T06:30:28;34.92;;;26.73;;
24373;SDS011;12498;50.880;12.096;2023-05-16T06:32:54;34.33;;;25.10;;
24373;SDS011;12498;50.880;12.096;2023-05-16T06:35:20;34.30;;;24.75;;
24373;SDS011;12498;50.880;12.096;2023-05-16T06:37:47;39.00;;;25.80;;
24373;SDS011;12498;50.880;12.096;2023-05-16T06:40:13;106.57;;;52.85;;
24373;SDS011;12498;50.880;12.096;2023-05-16T06:42:39;44.33;;;30.35;;
24373;SDS011;12498;50.880;12.096;2023-05-16T06:45:05;41.13;;;28.15;;
24373;SDS011;12498;50.880;12.096;2023-05-16T06:47:31;59.15;;;34.80;;
24373;SDS011;12498;50.880;12.096;2023-05-16T06:49:57;288.23;;;130.05;;
24373;SDS011;12498;50.880;12.096;2023-05-16T06:52:23;75.63;;;42.17;;
24373;SDS011;12498;50.880;12.096;2023-05-16T06:54:49;199.02;;;88.28;;
24373;SDS011;12498;50.880;12.096;2023-05-16T06:57:16;135.02;;;62.67;;
24373;SDS011;12498;50.880;12.096;2023-05-16T06:59:42;98.88;;;50.80;;
24373;SDS011;12498;50.880;12.096;2023-05-16T07:02:08;86.55;;;44.25;;
24373;SDS011;12498;50.880;12.096;2023-05-16T07:04:34;90.93;;;45.55;;
24373;SDS011;12498;50.880;12.096;2023-05-16T07:07:02;41.20;;;27.35;;
24373;SDS011;12498;50.880;12.096;2023-05-16T07:09:28;286.85;;;124.13;;
24373;SDS011;12498;50.880;12.096;2023-05-16T07:11:54;132.02;;;64.38;;
24373;SDS011;12498;50.880;12.096;2023-05-16T07:14:20;403.92;;;173.48;;
24373;SDS011;12498;50.880;12.096;2023-05-16T07:16:46;79.40;;;39.63;;
24373;SDS011;12498;50.880;12.096;2023-05-16T07:19:11;57.65;;;30.42;;
24373;SDS011;12498;50.880;12.096;2023-05-16T07:21:38;39.88;;;23.75;;
24373;SDS011;12498;50.880;12.096;2023-05-16T07:24:04;80.28;;;40.47;;
24373;SDS011;12498;50.880;12.096;2023-05-16T07:26:30;47.92;;;24.95;;
24373;SDS011;12498;50.880;12.096;2023-05-16T07:28:56;43.20;;;23.55;;
24373;SDS011;12498;50.880;12.096;2023-05-16T07:31:22;141.57;;;62.38;;
24373;SDS011;12498;50.880;12.096;2023-05-16T07:33:48;141.35;;;59.92;;
24373;SDS011;12498;50.880;12.096;2023-05-16T07:36:14;49.97;;;26.42;;
24373;SDS011;12498;50.880;12.096;2023-05-16T07:38:41;93.13;;;43.50;;
24373;SDS011;12498;50.880;12.096;2023-05-16T07:41:07;61.75;;;31.05;;
24373;SDS011;12498;50.880;12.096;2023-05-16T07:43:33;52.15;;;27.63;;
24373;SDS011;12498;50.880;12.096;2023-05-16T07:46:00;65.60;;;32.28;;
24373;SDS011;12498;50.880;12.096;2023-05-16T07:48:26;89.45;;;42.88;;
24373;SDS011;12498;50.880;12.096;2023-05-16T07:50:52;120.97;;;54.38;;
24373;SDS011;12498;50.880;12.096;2023-05-16T07:53:18;197.07;;;82.10;;
24373;SDS011;12498;50.880;12.096;2023-05-16T07:55:44;93.15;;;44.03;;
24373;SDS011;12498;50.880;12.096;2023-05-16T07:58:10;164.00;;;70.03;;
24373;SDS011;12498;50.880;12.096;2023-05-16T08:00:36;160.40;;;66.65;;
24373;SDS011;12498;50.880;12.096;2023-05-16T08:03:03;195.50;;;80.30;;
24373;SDS011;12498;50.880;12.096;2023-05-16T08:05:29;111.43;;;47.70;;
24373;SDS011;12498;50.880;12.096;2023-05-16T08:07:55;179.80;;;76.85;;
24373;SDS011;12498;50.880;12.096;2023-05-16T08:10:21;87.82;;;37.80;;
24373;SDS011;12498;50.880;12.096;2023-05-16T08:12:47;143.27;;;62.08;;
24373;SDS011;12498;50.880;12.096;2023-05-16T08:15:13;76.78;;;35.22;;
24373;SDS011;12498;50.880;12.096;2023-05-16T08:17:39;165.73;;;71.38;;
24373;SDS011;12498;50.880;12.096;2023-05-16T08:20:06;80.32;;;37.42;;
24373;SDS011;12498;50.880;12.096;2023-05-16T08:22:32;71.32;;;33.92;;
24373;SDS011;12498;50.880;12.096;2023-05-16T08:24:58;37.33;;;20.98;;
24373;SDS011;12498;50.880;12.096;2023-05-16T08:27:27;16.85;;;12.07;;
24373;SDS011;12498;50.880;12.096;2023-05-16T08:29:53;16.08;;;10.85;;
24373;SDS011;12498;50.880;12.096;2023-05-16T08:32:20;15.70;;;10.80;;
24373;SDS011;12498;50.880;12.096;2023-05-16T08:34:47;12.05;;;9.65;;
24373;SDS011;12498;50.880;12.096;2023-05-16T08:37:13;13.90;;;10.07;;
24373;SDS011;12498;50.880;12.096;2023-05-16T08:39:39;12.93;;;10.10;;
24373;SDS011;12498;50.880;12.096;2023-05-16T08:42:05;13.82;;;9.82;;
24373;SDS011;12498;50.880;12.096;2023-05-16T08:44:32;14.40;;;9.98;;
24373;SDS011;12498;50.880;12.096;2023-05-16T08:47:01;14.75;;;9.55;;
24373;SDS011;12498;50.880;12.096;2023-05-16T08:49:31;12.73;;;10.40;;
24373;SDS011;12498;50.880;12.096;2023-05-16T08:51:59;11.73;;;10.07;;
24373;SDS011;12498;50.880;12.096;2023-05-16T08:54:26;14.93;;;10.27;;
24373;SDS011;12498;50.880;12.096;2023-05-16T08:56:52;12.93;;;9.80;;
24373;SDS011;12498;50.880;12.096;2023-05-16T08:59:19;15.77;;;9.45;;
24373;SDS011;12498;50.880;12.096;2023-05-16T09:01:45;16.70;;;9.82;;
24373;SDS011;12498;50.880;12.096;2023-05-16T09:04:11;12.55;;;9.40;;
24373;SDS011;12498;50.880;12.096;2023-05-16T09:06:37;14.02;;;9.63;;
24373;SDS011;12498;50.880;12.096;2023-05-16T09:09:04;14.52;;;10.65;;
24373;SDS011;12498;50.880;12.096;2023-05-16T09:11:32;14.98;;;9.60;;
24373;SDS011;12498;50.880;12.096;2023-05-16T09:13:58;15.23;;;10.00;;
24373;SDS011;12498;50.880;12.096;2023-05-16T09:16:24;16.75;;;10.02;;
24373;SDS011;12498;50.880;12.096;2023-05-16T09:18:54;13.23;;;9.68;;
24373;SDS011;12498;50.880;12.096;2023-05-16T09:21:21;17.27;;;10.30;;
24373;SDS011;12498;50.880;12.096;2023-05-16T09:23:48;18.17;;;9.85;;
24373;SDS011;12498;50.880;12.096;2023-05-16T09:26:15;12.00;;;9.60;;
24373;SDS011;12498;50.880;12.096;2023-05-16T09:28:41;13.75;;;9.20;;
24373;SDS011;12498;50.880;12.096;2023-05-16T09:31:21;13.75;;;9.07;;
24373;SDS011;12498;50.880;12.096;2023-05-16T09:33:50;14.48;;;8.45;;
24373;SDS011;12498;50.880;12.096;2023-05-16T09:36:16;12.48;;;8.63;;
24373;SDS011;12498;50.880;12.096;2023-05-16T09:38:42;12.48;;;8.40;;
24373;SDS011;12498;50.880;12.096;2023-05-16T09:41:09;12.80;;;8.48;;
24373;SDS011;12498;50.880;12.096;2023-05-16T09:43:37;16.73;;;8.68;;
24373;SDS011;12498;50.880;12.096;2023-05-16T09:46:03;14.15;;;8.95;;
24373;SDS011;12498;50.880;12.096;2023-05-16T09:48:30;12.57;;;8.45;;
24373;SDS011;12498;50.880;12.096;2023-05-16T09:50:56;14.25;;;9.52;;
24373;SDS011;12498;50.880;12.096;2023-05-16T09:53:31;14.43;;;9.48;;
24373;SDS011;12498;50.880;12.096;2023-05-16T09:56:10;14.45;;;9.82;;
24373;SDS011;12498;50.880;12.096;2023-05-16T09:58:40;15.77;;;9.48;;
24373;SDS011;12498;50.880;12.096;2023-05-16T10:01:06;15.93;;;9.43;;
24373;SDS011;12498;50.880;12.096;2023-05-16T10:03:33;15.45;;;9.93;;
24373;SDS011;12498;50.880;12.096;2023-05-16T10:06:00;17.83;;;9.73;;
24373;SDS011;12498;50.880;12.096;2023-05-16T10:08:26;19.80;;;11.30;;
24373;SDS011;12498;50.880;12.096;2023-05-16T10:10:53;17.10;;;10.57;;
24373;SDS011;12498;50.880;12.096;2023-05-16T10:13:20;14.98;;;9.75;;
24373;SDS011;12498;50.880;12.096;2023-05-16T10:15:47;14.23;;;9.77;;
24373;SDS011;12498;50.880;12.096;2023-05-16T10:18:14;12.30;;;9.52;;
24373;SDS011;12498;50.880;12.096;2023-05-16T10:20:42;12.05;;;9.35;;
24373;SDS011;12498;50.880;12.096;2023-05-16T10:23:09;11.32;;;8.98;;
24373;SDS011;12498;50.880;12.096;2023-05-16T10:25:40;13.48;;;9.23;;
24373;SDS011;12498;50.880;12.096;2023-05-16T10:28:08;11.10;;;8.40;;
24373;SDS011;12498;50.880;12.096;2023-05-16T10:30:34;12.95;;;8.68;;
24373;SDS011;12498;50.880;12.096;2023-05-16T10:33:02;11.65;;;7.80;;
24373;SDS011;12498;50.880;12.096;2023-05-16T10:35:29;11.85;;;7.68;;
24373;SDS011;12498;50.880;12.096;2023-05-16T10:37:55;13.05;;;7.85;;
24373;SDS011;12498;50.880;12.096;2023-05-16T10:40:22;11.65;;;7.90;;
24373;SDS011;12498;50.880;12.096;2023-05-16T10:43:01;10.75;;;7.65;;
24373;SDS011;12498;50.880;12.096;2023-05-16T10:45:28;11.10;;;7.97;;
24373;SDS011;12498;50.880;12.096;2023-05-16T10:47:55;8.20;;;6.43;;
24373;SDS011;12498;50.880;12.096;2023-05-16T10:50:31;7.63;;;5.93;;
24373;SDS011;12498;50.880;12.096;2023-05-16T10:53:19;7.63;;;5.78;;
24373;SDS011;12498;50.880;12.096;2023-05-16T10:56:06;13.00;;;6.45;;
24373;SDS011;12498;50.880;12.096;2023-05-16T11:06:33;14.32;;;6.68;;
24373;SDS011;12498;50.880;12.096;2023-05-16T11:14:08;7.57;;;5.63;;
24373;SDS011;12498;50.880;12.096;2023-05-16T11:16:34;7.47;;;5.47;;
24373;SDS011;12498;50.880;12.096;2023-05-16T11:19:04;7.72;;;5.35;;
24373;SDS011;12498;50.880;12.096;2023-05-16T11:24:28;8.00;;;5.38;;
24373;SDS011;12498;50.880;12.096;2023-05-16T11:26:54;7.60;;;4.88;;
24373;SDS011;12498;50.880;12.096;2023-05-16T11:29:21;8.40;;;4.90;;
24373;SDS011;12498;50.880;12.096;2023-05-16T11:31:47;7.78;;;4.60;;
24373;SDS011;12498;50.880;12.096;2023-05-16T11:34:14;9.98;;;5.35;;
24373;SDS011;12498;50.880;12.096;2023-05-16T11:36:40;8.43;;;4.68;;
24373;SDS011;12498;50.880;12.096;2023-05-16T11:39:08;10.05;;;4.70;;
24373;SDS011;12498;50.880;12.096;2023-05-16T11:41:34;10.93;;;4.75;;
24373;SDS011;12498;50.880;12.096;2023-05-16T11:44:00;8.68;;;5.32;;
24373;SDS011;12498;50.880;12.096;2023-05-16T11:46:26;8.73;;;4.53;;
24373;SDS011;12498;50.880;12.096;2023-05-16T11:48:53;12.52;;;5.07;;
24373;SDS011;12498;50.880;12.096;2023-05-16T11:51:19;13.75;;;5.20;;
24373;SDS011;12498;50.880;12.096;2023-05-16T11:53:48;11.13;;;5.05;;
24373;SDS011;12498;50.880;12.096;2023-05-16T11:56:14;9.95;;;4.95;;
24373;SDS011;12498;50.880;12.096;2023-05-16T11:58:41;15.52;;;5.28;;
24373;SDS011;12498;50.880;12.096;2023-05-16T12:01:07;9.65;;;5.80;;
24373;SDS011;12498;50.880;12.096;2023-05-16T12:03:34;14.60;;;5.38;;
24373;SDS011;12498;50.880;12.096;2023-05-16T12:06:00;9.80;;;5.68;;
24373;SDS011;12498;50.880;12.096;2023-05-16T12:08:27;10.10;;;5.10;;
24373;SDS011;12498;50.880;12.096;2023-05-16T12:10:53;11.15;;;5.15;;
24373;SDS011;12498;50.880;12.096;2023-05-16T12:13:19;9.55;;;5.50;;
24373;SDS011;12498;50.880;12.096;2023-05-16T12:15:46;12.02;;;5.63;;
24373;SDS011;12498;50.880;12.096;2023-05-16T12:18:13;11.63;;;7.90;;
24373;SDS011;12498;50.880;12.096;2023-05-16T12:20:42;14.45;;;7.53;;
24373;SDS011;12498;50.880;12.096;2023-05-16T12:23:12;12.38;;;7.07;;
24373;SDS011;12498;50.880;12.096;2023-05-16T12:25:39;7.70;;;5.15;;
24373;SDS011;12498;50.880;12.096;2023-05-16T12:28:10;11.88;;;5.05;;
24373;SDS011;12498;50.880;12.096;2023-05-16T12:30:38;10.43;;;5.00;;
24373;SDS011;12498;50.880;12.096;2023-05-16T12:33:08;12.35;;;4.60;;
24373;SDS011;12498;50.880;12.096;2023-05-16T12:35:36;7.45;;;4.25;;
24373;SDS011;12498;50.880;12.096;2023-05-16T12:38:03;8.30;;;3.95;;
24373;SDS011;12498;50.880;12.096;2023-05-16T12:40:29;12.27;;;4.43;;
24373;SDS011;12498;50.880;12.096;2023-05-16T12:42:56;8.93;;;4.30;;
24373;SDS011;12498;50.880;12.096;2023-05-16T12:45:22;11.75;;;4.18;;
24373;SDS011;12498;50.880;12.096;2023-05-16T12:47:48;9.80;;;4.15;;
24373;SDS011;12498;50.880;12.096;2023-05-16T12:50:15;10.25;;;4.25;;
24373;SDS011;12498;50.880;12.096;2023-05-16T12:53:02;13.95;;;4.05;;
24373;SDS011;12498;50.880;12.096;2023-05-16T12:55:28;10.13;;;3.75;;
24373;SDS011;12498;50.880;12.096;2023-05-16T12:57:54;13.25;;;4.15;;
24373;SDS011;12498;50.880;12.096;2023-05-16T13:00:20;8.20;;;4.00;;
24373;SDS011;12498;50.880;12.096;2023-05-16T13:02:47;9.52;;;4.05;;
24373;SDS011;12498;50.880;12.096;2023-05-16T13:05:13;9.18;;;4.55;;
24373;SDS011;12498;50.880;12.096;2023-05-16T13:07:40;11.15;;;4.75;;
24373;SDS011;12498;50.880;12.096;2023-05-16T13:10:07;13.85;;;5.20;;
24373;SDS011;12498;50.880;12.096;2023-05-16T13:12:36;6.75;;;5.15;;
24373;SDS011;12498;50.880;12.096;2023-05-16T13:15:03;9.38;;;4.53;;
24373;SDS011;12498;50.880;12.096;2023-05-16T13:17:29;12.07;;;4.30;;
24373;SDS011;12498;50.880;12.096;2023-05-16T13:19:55;10.82;;;4.68;;
24373;SDS011;12498;50.880;12.096;2023-05-16T13:22:21;9.45;;;4.80;;
24373;SDS011;12498;50.880;12.096;2023-05-16T13:24:47;11.90;;;4.60;;
24373;SDS011;12498;50.880;12.096;2023-05-16T13:27:16;18.02;;;5.80;;
24373;SDS011;12498;50.880;12.096;2023-05-16T13:29:42;15.73;;;4.75;;
24373;SDS011;12498;50.880;12.096;2023-05-16T13:32:08;12.15;;;4.45;;
24373;SDS011;12498;50.880;12.096;2023-05-16T13:34:34;17.13;;;4.28;;
24373;SDS011;12498;50.880;12.096;2023-05-16T13:37:00;9.65;;;3.80;;
24373;SDS011;12498;50.880;12.096;2023-05-16T13:39:27;13.18;;;3.67;;
24373;SDS011;12498;50.880;12.096;2023-05-16T13:41:53;14.00;;;3.80;;
24373;SDS011;12498;50.880;12.096;2023-05-16T13:44:19;12.25;;;4.13;;
24373;SDS011;12498;50.880;12.096;2023-05-16T13:46:47;14.48;;;4.13;;
24373;SDS011;12498;50.880;12.096;2023-05-16T13:49:13;10.05;;;3.45;;
24373;SDS011;12498;50.880;12.096;2023-05-16T13:51:39;11.18;;;3.38;;
24373;SDS011;12498;50.880;12.096;2023-05-16T13:54:05;11.77;;;3.95;;
24373;SDS011;12498;50.880;12.096;2023-05-16T13:56:31;12.00;;;3.22;;
24373;SDS011;12498;50.880;12.096;2023-05-16T13:58:57;12.25;;;3.30;;
24373;SDS011;12498;50.880;12.096;2023-05-16T14:01:23;12.98;;;3.50;;
24373;SDS011;12498;50.880;12.096;2023-05-16T14:03:49;9.65;;;3.63;;
24373;SDS011;12498;50.880;12.096;2023-05-16T14:06:15;7.15;;;2.97;;
24373;SDS011;12498;50.880;12.096;2023-05-16T14:08:41;11.75;;;3.22;;
24373;SDS011;12498;50.880;12.096;2023-05-16T14:11:07;8.88;;;2.83;;
24373;SDS011;12498;50.880;12.096;2023-05-16T14:13:33;11.77;;;2.80;;
24373;SDS011;12498;50.880;12.096;2023-05-16T14:16:04;13.18;;;4.20;;
24373;SDS011;12498;50.880;12.096;2023-05-16T14:18:30;12.68;;;3.17;;
24373;SDS011;12498;50.880;12.096;2023-05-16T14:20:56;12.55;;;3.17;;
24373;SDS011;12498;50.880;12.096;2023-05-16T14:23:22;15.82;;;7.25;;
24373;SDS011;12498;50.880;12.096;2023-05-16T14:25:48;14.45;;;5.35;;
24373;SDS011;12498;50.880;12.096;2023-05-16T14:28:15;21.30;;;3.90;;
24373;SDS011;12498;50.880;12.096;2023-05-16T14:30:41;13.10;;;2.80;;
24373;SDS011;12498;50.880;12.096;2023-05-16T14:33:07;12.10;;;3.38;;
24373;SDS011;12498;50.880;12.096;2023-05-16T14:35:33;21.35;;;7.90;;
24373;SDS011;12498;50.880;12.096;2023-05-16T14:38:02;11.40;;;3.22;;
24373;SDS011;12498;50.880;12.096;2023-05-16T14:40:28;15.98;;;3.60;;
24373;SDS011;12498;50.880;12.096;2023-05-16T14:42:54;10.80;;;3.15;;